createdAt,value
2023-03-18T00:02:10.548Z,37.21
2023-03-18T00:04:42.338Z,37.30
2023-03-18T00:07:10.743Z,37.28
2023-03-18T00:09:40.352Z,37.42
2023-03-18T00:12:09.329Z,37.50
2023-03-18T00:14:38.679Z,37.34
2023-03-18T00:17:08.097Z,37.44
2023-03-18T00:19:36.402Z,37.60
2023-03-18T00:22:06.472Z,37.58
2023-03-18T00:24:34.846Z,37.40
2023-03-18T00:27:03.275Z,37.78
2023-03-18T00:29:31.942Z,37.68
2023-03-18T00:32:00.408Z,37.65
2023-03-18T00:34:29.046Z,37.61
2023-03-18T00:36:57.862Z,37.67
2023-03-18T00:39:29.169Z,37.73
2023-03-18T00:42:02.080Z,37.81
2023-03-18T00:44:30.789Z,37.74
2023-03-18T00:46:59.127Z,37.90
2023-03-18T00:49:27.486Z,37.91
2023-03-18T00:51:55.797Z,37.76
2023-03-18T00:54:24.835Z,37.81
2023-03-18T00:56:58.361Z,37.84
2023-03-18T00:59:27.411Z,37.84
2023-03-18T01:01:55.802Z,37.86
2023-03-18T01:04:24.750Z,37.97
2023-03-18T01:06:53.072Z,38.16
2023-03-18T01:09:24.945Z,38.17
2023-03-18T01:11:54.656Z,38.09
2023-03-18T01:14:22.922Z,38.40
2023-03-18T01:16:51.247Z,38.41
2023-03-18T01:19:20.057Z,38.21
2023-03-18T01:21:48.469Z,38.17
2023-03-18T01:24:19.398Z,38.45
2023-03-18T01:26:47.669Z,38.24
2023-03-18T01:29:17.784Z,38.47
2023-03-18T01:31:47.117Z,38.36
2023-03-18T01:34:18.404Z,38.52
2023-03-18T01:36:48.018Z,38.41
2023-03-18T01:39:17.540Z,38.51
2023-03-18T01:41:46.192Z,38.75
2023-03-18T01:44:20.620Z,38.61
2023-03-18T01:46:49.960Z,38.77
2023-03-18T01:49:24.079Z,38.90
2023-03-18T01:51:56.573Z,38.72
2023-03-18T01:54:27.511Z,39.05
2023-03-18T01:56:57.733Z,38.87
2023-03-18T01:59:30.102Z,38.97
2023-03-18T02:02:04.578Z,38.96
2023-03-18T02:04:39.388Z,38.97
2023-03-18T02:07:08.889Z,38.91
2023-03-18T02:09:37.830Z,38.99
2023-03-18T02:12:08.730Z,39.30
2023-03-18T02:14:38.556Z,39.19
2023-03-18T02:17:12.367Z,39.15
2023-03-18T02:20:05.229Z,38.98
2023-03-18T02:22:39.354Z,39.21
2023-03-18T02:25:32.979Z,39.19
2023-03-18T02:28:05.965Z,39.33
2023-03-18T02:30:38.572Z,39.51
2023-03-18T02:33:08.602Z,39.33
2023-03-18T02:35:37.870Z,39.22
2023-03-18T02:38:09.110Z,39.27
2023-03-18T02:40:41.300Z,39.22
2023-03-18T02:43:27.553Z,39.42
2023-03-18T02:46:19.803Z,39.46
2023-03-18T02:48:49.429Z,39.40
2023-03-18T02:51:19.476Z,39.48
2023-03-18T02:53:48.199Z,39.40
2023-03-18T02:56:17.709Z,39.52
2023-03-18T02:58:47.515Z,39.55
2023-03-18T03:01:19.283Z,40.03
2023-03-18T03:03:47.600Z,39.80
2023-03-18T03:06:19.796Z,39.90
2023-03-18T03:08:50.955Z,40.05
2023-03-18T03:11:20.660Z,40.03
2023-03-18T03:13:50.545Z,40.04
2023-03-18T03:16:20.357Z,39.84
2023-03-18T03:18:48.990Z,40.07
2023-03-18T03:21:18.165Z,39.76
2023-03-18T03:23:47.764Z,39.98
2023-03-18T03:26:17.533Z,40.17
2023-03-18T03:28:46.093Z,39.96
2023-03-18T03:31:16.968Z,40.09
2023-03-18T03:33:46.400Z,40.17
2023-03-18T03:36:17.810Z,40.04
2023-03-18T03:38:46.648Z,40.41
2023-03-18T03:41:15.960Z,40.29
2023-03-18T03:43:45.592Z,40.36
2023-03-18T03:46:15.581Z,40.38
2023-03-18T03:48:47.535Z,40.38
2023-03-18T03:51:15.885Z,40.63
2023-03-18T03:53:46.213Z,40.87
2023-03-18T03:56:15.638Z,40.55
2023-03-18T03:58:44.044Z,40.75
2023-03-18T04:01:12.664Z,40.67
2023-03-18T04:03:42.436Z,40.91
2023-03-18T04:06:11.179Z,40.98
2023-03-18T04:08:39.524Z,40.95
2023-03-18T04:11:07.808Z,40.70
2023-03-18T04:13:36.110Z,40.78
2023-03-18T04:16:04.504Z,40.86
2023-03-18T04:18:32.780Z,40.92
2023-03-18T04:21:02.705Z,40.95
2023-03-18T04:23:33.143Z,40.82
2023-03-18T04:26:01.614Z,41.11
2023-03-18T04:28:30.177Z,40.76
2023-03-18T04:30:58.668Z,41.21
2023-03-18T04:33:27.932Z,40.96
2023-03-18T04:35:56.413Z,41.31
2023-03-18T04:38:26.180Z,41.27
2023-03-18T04:40:54.522Z,41.37
2023-03-18T04:43:22.877Z,41.31
2023-03-18T04:45:52.939Z,41.01
2023-03-18T04:48:25.957Z,41.31
2023-03-18T04:50:55.408Z,41.16
2023-03-18T04:53:25.558Z,41.63
2023-03-18T04:55:53.916Z,41.44
2023-03-18T04:58:22.397Z,41.43
2023-03-18T05:00:51.138Z,41.60
2023-03-18T05:03:19.631Z,41.41
2023-03-18T05:05:49.229Z,41.29
2023-03-18T05:08:18.229Z,41.62
2023-03-18T05:10:50.722Z,41.80
2023-03-18T05:13:19.181Z,41.56
2023-03-18T05:15:47.731Z,41.87
2023-03-18T05:18:16.382Z,42.02
2023-03-18T05:20:45.977Z,42.06
2023-03-18T05:23:14.297Z,42.10
2023-03-18T05:25:42.644Z,42.19
2023-03-18T05:28:12.510Z,41.99
2023-03-18T05:30:40.934Z,41.93
2023-03-18T05:33:09.187Z,42.03
2023-03-18T05:35:37.596Z,42.03
2023-03-18T05:38:06.854Z,42.16
2023-03-18T05:40:36.008Z,42.52
2023-03-18T05:43:05.171Z,42.53
2023-03-18T05:45:40.041Z,42.55
2023-03-18T05:48:09.068Z,42.37
2023-03-18T05:50:41.744Z,42.50
2023-03-18T05:53:12.032Z,42.56
2023-03-18T05:55:44.404Z,42.46
2023-03-18T05:58:12.824Z,42.88
2023-03-18T06:00:43.415Z,42.94
2023-03-18T06:03:11.785Z,42.77
2023-03-18T06:05:40.139Z,42.85
2023-03-18T06:08:08.518Z,42.74
2023-03-18T06:10:36.806Z,43.16
2023-03-18T06:13:05.937Z,43.10
2023-03-18T06:15:37.142Z,43.17
2023-03-18T06:18:06.958Z,43.11
2023-03-18T06:20:37.779Z,43.65
2023-03-18T06:23:06.359Z,43.39
2023-03-18T06:25:44.281Z,43.65
2023-03-18T06:28:13.019Z,43.53
2023-03-18T06:30:41.867Z,43.50
2023-03-18T06:33:12.129Z,43.74
2023-03-18T06:35:40.655Z,44.24
2023-03-18T06:38:14.434Z,44.29
2023-03-18T06:40:45.732Z,44.51
2023-03-18T06:43:14.189Z,44.46
2023-03-18T06:45:42.667Z,44.72
2023-03-18T06:48:12.292Z,44.95
2023-03-18T06:50:42.155Z,45.09
2023-03-18T06:53:12.629Z,45.20
2023-03-18T06:55:41.483Z,45.38
2023-03-18T06:58:10.550Z,45.35
2023-03-18T07:00:41.629Z,45.52
2023-03-18T07:03:11.398Z,45.21
2023-03-18T07:05:39.894Z,45.33
2023-03-18T07:08:08.379Z,45.42
2023-03-18T07:10:40.854Z,45.38
2023-03-18T07:13:15.815Z,45.49
2023-03-18T07:15:44.570Z,45.37
2023-03-18T07:18:14.430Z,45.52
2023-03-18T07:20:43.291Z,45.55
2023-03-18T07:23:14.833Z,45.76
2023-03-18T07:25:44.723Z,45.89
2023-03-18T07:28:13.258Z,45.97
2023-03-18T07:30:41.570Z,46.20
2023-03-18T07:33:10.005Z,45.96
2023-03-18T07:35:43.963Z,46.38
2023-03-18T07:38:15.648Z,46.37
2023-03-18T07:40:43.909Z,46.23
2023-03-18T07:43:12.229Z,46.60
2023-03-18T07:45:40.516Z,46.71
2023-03-18T07:48:08.849Z,46.93
2023-03-18T07:50:37.266Z,47.26
2023-03-18T07:53:06.939Z,46.98
2023-03-18T07:55:38.250Z,46.88
2023-03-18T07:58:07.599Z,46.84
2023-03-18T08:00:36.684Z,46.98
2023-03-18T08:03:06.083Z,47.08
2023-03-18T08:05:34.976Z,46.99
2023-03-18T08:08:04.355Z,47.03
2023-03-18T08:10:34.152Z,46.96
2023-03-18T08:13:02.862Z,46.65
2023-03-18T08:15:31.777Z,46.62
2023-03-18T08:18:00.761Z,46.36
2023-03-18T08:20:29.099Z,46.26
2023-03-18T08:22:57.414Z,45.97
2023-03-18T08:25:27.427Z,45.68
2023-03-18T08:27:57.197Z,45.54
2023-03-18T08:30:28.718Z,45.29
2023-03-18T08:32:57.390Z,45.11
2023-03-18T08:35:25.930Z,45.10
2023-03-18T08:37:55.919Z,44.91
2023-03-18T08:40:26.086Z,44.73
2023-03-18T08:42:56.097Z,44.69
2023-03-18T08:45:24.457Z,44.42
2023-03-18T08:47:53.780Z,44.48
2023-03-18T08:50:22.853Z,44.09
2023-03-18T08:52:51.334Z,44.12
2023-03-18T08:55:21.420Z,43.94
2023-03-18T08:57:50.057Z,43.91
2023-03-18T09:00:21.446Z,43.72
2023-03-18T09:02:50.106Z,43.40
2023-03-18T09:05:19.116Z,42.93
2023-03-18T09:07:47.926Z,43.29
2023-03-18T09:10:18.411Z,42.98
2023-03-18T09:12:47.824Z,42.79
2023-03-18T09:15:20.261Z,42.82
2023-03-18T09:18:04.170Z,42.56
2023-03-18T09:20:38.984Z,42.73
2023-03-18T09:23:07.770Z,42.54
2023-03-18T09:25:36.057Z,42.63
2023-03-18T09:28:04.437Z,42.62
2023-03-18T09:30:34.405Z,42.42
2023-03-18T09:33:03.086Z,42.38
2023-03-18T09:35:31.813Z,42.10
2023-03-18T09:38:00.575Z,41.31
2023-03-18T09:40:32.729Z,41.25
2023-03-18T09:43:16.235Z,41.23
2023-03-18T09:45:57.153Z,41.27
2023-03-18T09:48:50.173Z,41.33
2023-03-18T09:51:37.312Z,41.28
2023-03-18T09:54:12.210Z,41.35
2023-03-18T09:56:40.971Z,40.92
2023-03-18T09:59:21.547Z,40.80
2023-03-18T10:01:56.287Z,40.42
2023-03-18T10:04:28.972Z,40.31
2023-03-18T10:07:04.173Z,40.25
2023-03-18T10:09:40.338Z,40.01
2023-03-18T10:12:19.022Z,39.99
2023-03-18T10:14:51.507Z,39.62
2023-03-18T10:17:27.652Z,39.73
2023-03-18T10:19:59.382Z,39.56
2023-03-18T10:22:53.318Z,39.61
2023-03-18T10:25:27.753Z,39.27
2023-03-18T10:28:29.944Z,39.38
2023-03-18T10:31:09.550Z,39.21
2023-03-18T10:33:47.829Z,39.18
2023-03-18T10:36:22.784Z,39.10
2023-03-18T10:38:52.917Z,38.90
2023-03-18T10:41:27.116Z,38.66
2023-03-18T10:43:58.410Z,38.64
2023-03-18T10:46:28.437Z,39.01
2023-03-18T10:49:04.653Z,38.75
2023-03-18T10:51:40.133Z,39.01
2023-03-18T10:54:15.330Z,39.04
2023-03-18T10:56:44.060Z,38.97
2023-03-18T10:59:16.396Z,38.87
2023-03-18T11:01:48.418Z,38.85
2023-03-18T11:04:21.633Z,38.70
2023-03-18T11:06:53.311Z,38.47
2023-03-18T11:09:24.114Z,38.48
2023-03-18T11:11:59.591Z,38.47
2023-03-18T11:14:32.028Z,38.25
2023-03-18T11:17:02.796Z,37.96
2023-03-18T11:19:34.578Z,37.93
2023-03-18T11:22:11.832Z,37.96
2023-03-18T11:24:42.707Z,37.87
2023-03-18T11:27:36.531Z,38.18
2023-03-18T11:30:24.338Z,37.95
2023-03-18T11:33:05.156Z,37.55
2023-03-18T11:35:43.164Z,37.56
2023-03-18T11:38:18.847Z,37.23
2023-03-18T11:40:47.436Z,36.94
2023-03-18T11:43:21.347Z,36.60
2023-03-18T11:45:55.306Z,36.67
2023-03-18T11:48:36.730Z,36.43
2023-03-18T11:51:38.166Z,36.22
2023-03-18T11:54:25.005Z,36.30
2023-03-18T11:56:57.326Z,36.02
2023-03-18T11:59:43.209Z,35.90
2023-03-18T12:02:42.626Z,36.22
2023-03-18T12:05:52.201Z,36.33
2023-03-18T12:08:34.833Z,36.18
2023-03-18T12:11:10.868Z,36.12
2023-03-18T12:13:54.040Z,35.69
2023-03-18T12:16:46.835Z,35.55
2023-03-18T12:19:52.724Z,35.45
2023-03-18T12:22:41.911Z,35.45
2023-03-18T12:25:30.753Z,35.49
2023-03-18T12:28:05.914Z,35.49
2023-03-18T12:31:22.782Z,35.32
2023-03-18T12:33:57.249Z,35.18
2023-03-18T12:36:44.430Z,34.82
2023-03-18T12:39:55.484Z,34.86
2023-03-18T12:42:48.823Z,34.89
2023-03-18T12:45:21.545Z,34.14
2023-03-18T12:47:55.393Z,33.68
2023-03-18T12:50:29.137Z,33.70
2023-03-18T12:53:03.175Z,33.41
2023-03-18T12:55:35.708Z,33.33
2023-03-18T12:58:12.228Z,32.95
2023-03-18T13:00:48.138Z,33.19
2023-03-18T13:03:30.431Z,32.70
2023-03-18T13:06:04.659Z,32.61
2023-03-18T13:09:03.174Z,32.88
2023-03-18T13:11:56.533Z,32.62
2023-03-18T13:14:39.430Z,32.17
2023-03-18T13:17:15.631Z,31.78
2023-03-18T13:19:44.915Z,31.13
2023-03-18T13:22:38.261Z,31.77
2023-03-18T13:25:22.750Z,30.60
2023-03-18T13:28:22.934Z,30.83
2023-03-18T13:31:08.582Z,30.81
2023-03-18T13:34:28.045Z,30.62
2023-03-18T13:37:37.777Z,30.86
2023-03-18T13:40:29.212Z,30.37
2023-03-18T13:43:00.237Z,30.00
2023-03-18T13:45:32.605Z,29.73
2023-03-18T13:48:08.672Z,29.77
2023-03-18T13:50:39.854Z,29.50
2023-03-18T13:53:26.339Z,29.31
2023-03-18T13:56:04.564Z,28.91
2023-03-18T13:58:37.601Z,28.65
2023-03-18T14:01:33.297Z,28.87
2023-03-18T14:04:30.362Z,28.94
2023-03-18T14:07:15.227Z,28.79
2023-03-18T14:10:05.391Z,28.47
2023-03-18T14:12:42.866Z,28.39
2023-03-18T14:15:42.160Z,28.33
2023-03-18T14:18:27.727Z,28.38
2023-03-18T14:21:04.204Z,28.14
2023-03-18T14:23:43.682Z,27.99
2023-03-18T14:26:24.198Z,27.94
2023-03-18T14:28:57.912Z,27.83
2023-03-18T14:31:35.583Z,27.76
2023-03-18T14:34:27.845Z,27.71
2023-03-18T14:37:31.697Z,27.78
2023-03-18T14:40:12.647Z,27.23
2023-03-18T14:42:58.618Z,27.28
2023-03-18T14:45:33.275Z,27.23
2023-03-18T14:48:06.721Z,27.27
2023-03-18T14:50:43.111Z,27.26
2023-03-18T14:53:22.609Z,27.21
2023-03-18T14:55:55.160Z,27.30
2023-03-18T14:58:26.580Z,27.35
2023-03-18T15:00:58.779Z,27.25
2023-03-18T15:03:29.389Z,27.28
2023-03-18T15:06:00.549Z,27.26
2023-03-18T15:08:46.675Z,27.37
2023-03-18T15:11:17.451Z,27.44
2023-03-18T15:13:46.427Z,27.29
2023-03-18T15:16:20.323Z,27.37
2023-03-18T15:18:54.888Z,27.67
2023-03-18T15:21:28.711Z,27.68
2023-03-18T15:24:03.560Z,27.59
2023-03-18T15:26:35.974Z,27.84
2023-03-18T15:29:25.638Z,28.07
2023-03-18T15:31:54.191Z,27.98
2023-03-18T15:34:26.188Z,28.02
2023-03-18T15:36:57.319Z,28.13
2023-03-18T15:39:36.382Z,28.35
2023-03-18T15:42:15.508Z,28.54
2023-03-18T15:44:46.582Z,28.60
2023-03-18T15:47:18.456Z,28.58
2023-03-18T15:49:54.489Z,28.55
2023-03-18T15:52:26.196Z,28.45
2023-03-18T15:54:56.426Z,28.26
2023-03-18T15:57:31.732Z,28.65
2023-03-18T16:00:00.269Z,28.63
2023-03-18T16:02:30.250Z,28.48
2023-03-18T16:05:09.363Z,28.69
2023-03-18T16:07:38.673Z,28.71
2023-03-18T16:10:10.681Z,28.76
2023-03-18T16:12:41.057Z,29.22
2023-03-18T16:15:21.928Z,28.86
2023-03-18T16:17:50.899Z,29.07
2023-03-18T16:20:22.924Z,28.95
2023-03-18T16:22:52.016Z,29.16
2023-03-18T16:25:22.336Z,29.12
2023-03-18T16:27:55.607Z,29.43
2023-03-18T16:30:27.785Z,29.31
2023-03-18T16:32:57.131Z,29.36
2023-03-18T16:35:27.931Z,29.48
2023-03-18T16:38:01.189Z,29.89
2023-03-18T16:40:32.825Z,29.84
2023-03-18T16:43:02.129Z,29.55
2023-03-18T16:45:32.983Z,30.05
2023-03-18T16:48:06.848Z,30.19
2023-03-18T16:50:38.505Z,30.32
2023-03-18T16:53:17.424Z,30.37
2023-03-18T16:55:48.619Z,30.49
2023-03-18T16:58:21.216Z,30.38
2023-03-18T17:00:49.876Z,30.33
2023-03-18T17:03:19.917Z,30.28
2023-03-18T17:05:52.076Z,30.30
2023-03-18T17:08:22.047Z,30.32
2023-03-18T17:10:55.467Z,30.52
2023-03-18T17:13:28.509Z,30.70
2023-03-18T17:15:57.813Z,30.88
2023-03-18T17:18:27.833Z,30.98
2023-03-18T17:20:56.973Z,30.96
2023-03-18T17:23:28.789Z,31.08
2023-03-18T17:26:00.952Z,31.43
2023-03-18T17:28:34.573Z,31.48
2023-03-18T17:31:03.425Z,31.79
2023-03-18T17:33:34.784Z,32.22
2023-03-18T17:36:03.418Z,32.41
2023-03-18T17:38:32.306Z,32.29
2023-03-18T17:41:02.544Z,32.71
2023-03-18T17:43:33.805Z,32.72
2023-03-18T17:46:04.251Z,32.88
2023-03-18T17:48:34.259Z,33.18
2023-03-18T17:51:06.196Z,33.19
2023-03-18T17:53:37.295Z,33.42
2023-03-18T17:56:09.810Z,33.50
2023-03-18T17:58:38.610Z,33.64
2023-03-18T18:01:09.495Z,33.85
2023-03-18T18:03:40.573Z,33.90
2023-03-18T18:06:17.015Z,33.98
2023-03-18T18:08:45.412Z,34.10
2023-03-18T18:11:21.224Z,34.07
2023-03-18T18:13:51.550Z,34.12
2023-03-18T18:16:21.598Z,34.31
2023-03-18T18:18:50.279Z,34.52
2023-03-18T18:21:21.898Z,34.55
2023-03-18T18:23:50.447Z,34.68
2023-03-18T18:26:22.087Z,34.91
2023-03-18T18:28:52.866Z,35.08
2023-03-18T18:31:23.613Z,35.11
2023-03-18T18:33:55.788Z,35.24
2023-03-18T18:36:28.055Z,35.35
2023-03-18T18:38:56.901Z,35.50
2023-03-18T18:41:27.345Z,35.77
2023-03-18T18:43:56.647Z,35.80
2023-03-18T18:46:26.381Z,35.95
2023-03-18T18:48:54.854Z,36.08
2023-03-18T18:51:25.390Z,36.24
2023-03-18T18:53:55.602Z,36.33
2023-03-18T18:56:34.168Z,36.44
2023-03-18T18:59:05.234Z,36.50
2023-03-18T19:01:33.549Z,36.41
2023-03-18T19:04:02.668Z,36.53
2023-03-18T19:06:33.475Z,36.52
2023-03-18T19:09:03.928Z,36.70
2023-03-18T19:11:33.641Z,36.73
2023-03-18T19:14:20.228Z,36.62
2023-03-18T19:16:49.370Z,36.69
2023-03-18T19:19:20.527Z,36.89
2023-03-18T19:21:50.916Z,36.92
2023-03-18T19:24:28.797Z,37.13
2023-03-18T19:27:01.454Z,37.24
2023-03-18T19:29:33.280Z,37.42
2023-03-18T19:32:02.271Z,37.49
2023-03-18T19:34:32.359Z,37.62
2023-03-18T19:37:02.851Z,37.65
2023-03-18T19:39:31.800Z,37.55
2023-03-18T19:42:01.996Z,37.59
2023-03-18T19:44:30.338Z,37.53
2023-03-18T19:47:01.613Z,37.79
2023-03-18T19:49:33.600Z,37.88
2023-03-18T19:52:02.694Z,37.84
2023-03-18T19:54:36.845Z,38.30
2023-03-18T19:57:14.496Z,37.92
2023-03-18T19:59:43.344Z,37.90
2023-03-18T20:02:22.016Z,38.18
2023-03-18T20:04:51.436Z,38.10
2023-03-18T20:07:22.491Z,38.24
2023-03-18T20:09:51.426Z,38.20
2023-03-18T20:12:25.729Z,38.34
2023-03-18T20:14:54.584Z,38.36
2023-03-18T20:17:33.550Z,38.49
2023-03-18T20:20:02.157Z,38.46
2023-03-18T20:22:34.406Z,38.54
2023-03-18T20:25:03.594Z,38.54
2023-03-18T20:27:33.517Z,38.79
2023-03-18T20:30:02.341Z,38.61
2023-03-18T20:32:30.769Z,38.93
2023-03-18T20:35:00.508Z,38.88
2023-03-18T20:37:34.549Z,39.00
2023-03-18T20:40:04.990Z,38.89
2023-03-18T20:42:35.242Z,39.03
2023-03-18T20:45:04.014Z,38.82
2023-03-18T20:47:32.318Z,39.19
2023-03-18T20:50:00.657Z,39.04
2023-03-18T20:52:31.243Z,39.29
2023-03-18T20:55:00.076Z,39.21
2023-03-18T20:57:28.475Z,39.26
2023-03-18T20:59:58.240Z,39.46
2023-03-18T21:02:32.735Z,39.45
2023-03-18T21:05:05.635Z,39.75
2023-03-18T21:07:33.974Z,39.71
2023-03-18T21:10:02.348Z,39.79
2023-03-18T21:12:32.734Z,39.73
2023-03-18T21:15:02.426Z,40.00
2023-03-18T21:17:30.735Z,39.93
2023-03-18T21:20:11.059Z,39.97
2023-03-18T21:22:44.408Z,39.89
2023-03-18T21:25:19.683Z,40.01
2023-03-18T21:27:51.615Z,39.99
2023-03-18T21:30:23.909Z,39.98
2023-03-18T21:32:52.623Z,39.96
2023-03-18T21:35:23.810Z,40.03
2023-03-18T21:37:52.849Z,40.12
2023-03-18T21:40:23.285Z,40.26
2023-03-18T21:42:52.405Z,40.41
2023-03-18T21:45:24.323Z,40.34
2023-03-18T21:47:53.237Z,40.56
2023-03-18T21:50:24.157Z,40.44
2023-03-18T21:52:53.642Z,40.53
2023-03-18T21:55:22.772Z,40.68
2023-03-18T21:57:51.434Z,40.61
2023-03-18T22:00:22.787Z,40.71
2023-03-18T22:02:51.666Z,40.92
2023-03-18T22:05:22.926Z,40.94
2023-03-18T22:07:51.821Z,41.00
2023-03-18T22:10:23.019Z,40.96
2023-03-18T22:12:51.783Z,40.65
2023-03-18T22:15:37.041Z,40.96
2023-03-18T22:18:07.323Z,41.09
2023-03-18T22:20:36.638Z,41.08
2023-03-18T22:23:16.652Z,41.16
2023-03-18T22:25:46.941Z,41.23
2023-03-18T22:28:15.548Z,41.26
2023-03-18T22:30:47.216Z,41.43
2023-03-18T22:33:22.989Z,41.48
2023-03-18T22:35:51.690Z,41.39
2023-03-18T22:38:22.763Z,41.57
2023-03-18T22:40:54.356Z,41.65
2023-03-18T22:43:31.657Z,41.82
2023-03-18T22:46:14.445Z,41.75
2023-03-18T22:48:43.320Z,41.76
2023-03-18T22:51:21.394Z,41.92
2023-03-18T22:53:54.128Z,41.93
2023-03-18T22:56:24.382Z,42.03
2023-03-18T22:58:53.359Z,42.11
2023-03-18T23:01:29.673Z,42.13
2023-03-18T23:03:58.083Z,42.20
2023-03-18T23:06:27.207Z,42.32
2023-03-18T23:08:55.886Z,42.30
2023-03-18T23:11:24.247Z,42.27
2023-03-18T23:13:53.924Z,42.32
2023-03-18T23:16:26.118Z,42.53
2023-03-18T23:18:54.610Z,42.53
2023-03-18T23:21:25.546Z,42.52
2023-03-18T23:23:54.983Z,42.61
2023-03-18T23:26:23.292Z,42.53
2023-03-18T23:28:51.750Z,42.79
2023-03-18T23:31:20.637Z,42.82
2023-03-18T23:33:50.406Z,42.94
2023-03-18T23:36:18.850Z,42.98
2023-03-18T23:38:47.082Z,43.13
2023-03-18T23:41:15.863Z,43.14
2023-03-18T23:43:44.336Z,43.14
2023-03-18T23:46:12.726Z,42.96
2023-03-18T23:48:41.288Z,43.15
2023-03-18T23:51:11.079Z,43.31
2023-03-18T23:53:39.333Z,43.35
2023-03-18T23:56:09.284Z,43.52
2023-03-18T23:58:37.652Z,43.44
